sensor_id;sensor_type;location;lat;lon;timestamp;P1;durP1;ratioP1;P2;durP2;ratioP2
52047;SDS011;46904;49.438;8.752;2024-01-16T00:01:00;5.43;;;3.50;;
52047;SDS011;46904;49.438;8.752;2024-01-16T00:03:25;7.18;;;4.28;;
52047;SDS011;46904;49.438;8.752;2024-01-16T00:05:51;4.72;;;3.78;;
52047;SDS011;46904;49.438;8.752;2024-01-16T00:08:17;5.65;;;4.22;;
52047;SDS011;46904;49.438;8.752;2024-01-16T00:10:42;4.32;;;3.78;;
52047;SDS011;46904;49.438;8.752;2024-01-16T00:13:09;6.13;;;3.85;;
52047;SDS011;46904;49.438;8.752;2024-01-16T00:15:36;7.30;;;4.30;;
52047;SDS011;46904;49.438;8.752;2024-01-16T00:18:04;5.95;;;4.28;;
52047;SDS011;46904;49.438;8.752;2024-01-16T00:20:43;5.65;;;4.07;;
52047;SDS011;46904;49.438;8.752;2024-01-16T00:23:10;6.95;;;4.38;;
52047;SDS011;46904;49.438;8.752;2024-01-16T00:25:37;8.52;;;4.25;;
52047;SDS011;46904;49.438;8.752;2024-01-16T00:28:04;6.70;;;3.80;;
52047;SDS011;46904;49.438;8.752;2024-01-16T00:30:31;6.32;;;4.28;;
52047;SDS011;46904;49.438;8.752;2024-01-16T00:32:58;6.25;;;3.88;;
52047;SDS011;46904;49.438;8.752;2024-01-16T00:35:26;6.47;;;4.05;;
52047;SDS011;46904;49.438;8.752;2024-01-16T00:37:53;9.13;;;4.15;;
52047;SDS011;46904;49.438;8.752;2024-01-16T00:40:21;4.03;;;3.42;;
52047;SDS011;46904;49.438;8.752;2024-01-16T00:42:49;5.38;;;3.67;;
52047;SDS011;46904;49.438;8.752;2024-01-16T00:45:18;7.03;;;4.25;;
52047;SDS011;46904;49.438;8.752;2024-01-16T00:47:45;7.85;;;4.05;;
52047;SDS011;46904;49.438;8.752;2024-01-16T00:50:14;5.53;;;3.80;;
52047;SDS011;46904;49.438;8.752;2024-01-16T00:52:40;6.57;;;4.85;;
52047;SDS011;46904;49.438;8.752;2024-01-16T00:55:08;7.25;;;4.53;;
52047;SDS011;46904;49.438;8.752;2024-01-16T00:57:34;7.03;;;4.57;;
52047;SDS011;46904;49.438;8.752;2024-01-16T01:00:03;6.10;;;3.80;;
52047;SDS011;46904;49.438;8.752;2024-01-16T01:02:36;5.68;;;4.22;;
52047;SDS011;46904;49.438;8.752;2024-01-16T01:05:03;6.10;;;4.07;;
52047;SDS011;46904;49.438;8.752;2024-01-16T01:07:31;5.70;;;4.25;;
52047;SDS011;46904;49.438;8.752;2024-01-16T01:10:03;5.55;;;3.75;;
52047;SDS011;46904;49.438;8.752;2024-01-16T01:12:31;6.60;;;4.30;;
52047;SDS011;46904;49.438;8.752;2024-01-16T01:14:57;6.75;;;4.03;;
52047;SDS011;46904;49.438;8.752;2024-01-16T01:17:27;9.63;;;4.80;;
52047;SDS011;46904;49.438;8.752;2024-01-16T01:19:56;6.50;;;4.28;;
52047;SDS011;46904;49.438;8.752;2024-01-16T01:22:23;6.82;;;4.20;;
52047;SDS011;46904;49.438;8.752;2024-01-16T01:24:55;6.40;;;4.45;;
52047;SDS011;46904;49.438;8.752;2024-01-16T01:27:22;6.80;;;4.20;;
52047;SDS011;46904;49.438;8.752;2024-01-16T01:32:23;8.10;;;5.05;;
52047;SDS011;46904;49.438;8.752;2024-01-16T01:34:49;7.00;;;4.32;;
52047;SDS011;46904;49.438;8.752;2024-01-16T01:40:25;7.05;;;4.20;;
52047;SDS011;46904;49.438;8.752;2024-01-16T01:42:52;6.63;;;4.20;;
52047;SDS011;46904;49.438;8.752;2024-01-16T01:45:18;7.03;;;4.32;;
52047;SDS011;46904;49.438;8.752;2024-01-16T01:47:44;7.03;;;4.30;;
52047;SDS011;46904;49.438;8.752;2024-01-16T01:50:09;8.15;;;4.50;;
52047;SDS011;46904;49.438;8.752;2024-01-16T01:52:38;6.80;;;4.53;;
52047;SDS011;46904;49.438;8.752;2024-01-16T01:55:05;7.25;;;4.47;;
52047;SDS011;46904;49.438;8.752;2024-01-16T01:57:33;6.40;;;4.15;;
52047;SDS011;46904;49.438;8.752;2024-01-16T01:59:58;5.93;;;4.30;;
52047;SDS011;46904;49.438;8.752;2024-01-16T02:02:24;7.57;;;4.32;;
52047;SDS011;46904;49.438;8.752;2024-01-16T02:04:50;7.45;;;4.68;;
52047;SDS011;46904;49.438;8.752;2024-01-16T02:07:16;7.30;;;4.68;;
52047;SDS011;46904;49.438;8.752;2024-01-16T02:09:42;5.88;;;4.15;;
52047;SDS011;46904;49.438;8.752;2024-01-16T02:12:08;5.80;;;4.32;;
52047;SDS011;46904;49.438;8.752;2024-01-16T02:14:33;6.63;;;4.50;;
52047;SDS011;46904;49.438;8.752;2024-01-16T02:16:59;6.63;;;4.47;;
52047;SDS011;46904;49.438;8.752;2024-01-16T02:19:24;8.52;;;5.45;;
52047;SDS011;46904;49.438;8.752;2024-01-16T02:21:50;5.68;;;4.15;;
52047;SDS011;46904;49.438;8.752;2024-01-16T02:24:16;9.63;;;4.43;;
52047;SDS011;46904;49.438;8.752;2024-01-16T02:26:42;8.10;;;4.07;;
52047;SDS011;46904;49.438;8.752;2024-01-16T02:29:08;6.50;;;4.18;;
52047;SDS011;46904;49.438;8.752;2024-01-16T02:31:34;5.78;;;4.30;;
52047;SDS011;46904;49.438;8.752;2024-01-16T02:33:59;7.60;;;4.53;;
52047;SDS011;46904;49.438;8.752;2024-01-16T02:36:25;9.27;;;4.55;;
52047;SDS011;46904;49.438;8.752;2024-01-16T02:38:51;6.85;;;4.68;;
52047;SDS011;46904;49.438;8.752;2024-01-16T02:41:17;7.38;;;4.45;;
52047;SDS011;46904;49.438;8.752;2024-01-16T02:43:42;6.05;;;4.63;;
52047;SDS011;46904;49.438;8.752;2024-01-16T02:46:08;7.28;;;5.10;;
52047;SDS011;46904;49.438;8.752;2024-01-16T02:48:34;6.82;;;4.57;;
52047;SDS011;46904;49.438;8.752;2024-01-16T02:51:00;7.90;;;4.60;;
52047;SDS011;46904;49.438;8.752;2024-01-16T02:53:25;8.55;;;4.43;;
52047;SDS011;46904;49.438;8.752;2024-01-16T02:55:51;8.05;;;4.85;;
52047;SDS011;46904;49.438;8.752;2024-01-16T02:58:16;8.98;;;4.47;;
52047;SDS011;46904;49.438;8.752;2024-01-16T03:00:42;7.95;;;4.18;;
52047;SDS011;46904;49.438;8.752;2024-01-16T03:03:07;6.30;;;4.63;;
52047;SDS011;46904;49.438;8.752;2024-01-16T03:05:33;8.32;;;4.60;;
52047;SDS011;46904;49.438;8.752;2024-01-16T03:07:58;7.25;;;4.95;;
52047;SDS011;46904;49.438;8.752;2024-01-16T03:10:24;5.80;;;3.97;;
52047;SDS011;46904;49.438;8.752;2024-01-16T03:12:49;5.22;;;4.63;;
52047;SDS011;46904;49.438;8.752;2024-01-16T03:15:15;6.35;;;4.38;;
52047;SDS011;46904;49.438;8.752;2024-01-16T03:17:40;6.53;;;4.03;;
52047;SDS011;46904;49.438;8.752;2024-01-16T03:20:06;8.43;;;5.10;;
52047;SDS011;46904;49.438;8.752;2024-01-16T03:22:32;6.28;;;4.28;;
52047;SDS011;46904;49.438;8.752;2024-01-16T03:24:57;6.25;;;4.18;;
52047;SDS011;46904;49.438;8.752;2024-01-16T03:27:23;7.63;;;4.30;;
52047;SDS011;46904;49.438;8.752;2024-01-16T03:29:48;7.20;;;4.63;;
52047;SDS011;46904;49.438;8.752;2024-01-16T03:32:14;6.80;;;4.50;;
52047;SDS011;46904;49.438;8.752;2024-01-16T03:34:39;6.35;;;4.72;;
52047;SDS011;46904;49.438;8.752;2024-01-16T03:37:05;10.13;;;5.32;;
52047;SDS011;46904;49.438;8.752;2024-01-16T03:39:30;7.90;;;5.50;;
52047;SDS011;46904;49.438;8.752;2024-01-16T03:41:56;7.85;;;5.60;;
52047;SDS011;46904;49.438;8.752;2024-01-16T03:44:21;10.07;;;5.78;;
52047;SDS011;46904;49.438;8.752;2024-01-16T03:46:47;11.52;;;5.80;;
52047;SDS011;46904;49.438;8.752;2024-01-16T03:49:13;12.43;;;6.50;;
52047;SDS011;46904;49.438;8.752;2024-01-16T03:51:38;9.25;;;6.00;;
52047;SDS011;46904;49.438;8.752;2024-01-16T03:54:04;5.60;;;4.88;;
52047;SDS011;46904;49.438;8.752;2024-01-16T03:56:29;7.45;;;4.85;;
52047;SDS011;46904;49.438;8.752;2024-01-16T03:58:55;5.65;;;4.10;;
52047;SDS011;46904;49.438;8.752;2024-01-16T04:01:30;7.80;;;4.97;;
52047;SDS011;46904;49.438;8.752;2024-01-16T04:03:55;7.00;;;4.97;;
52047;SDS011;46904;49.438;8.752;2024-01-16T04:06:21;7.93;;;5.30;;
52047;SDS011;46904;49.438;8.752;2024-01-16T04:08:47;6.55;;;4.25;;
52047;SDS011;46904;49.438;8.752;2024-01-16T04:11:12;8.20;;;4.57;;
52047;SDS011;46904;49.438;8.752;2024-01-16T04:13:38;7.55;;;4.40;;
52047;SDS011;46904;49.438;8.752;2024-01-16T04:16:04;6.40;;;4.28;;
52047;SDS011;46904;49.438;8.752;2024-01-16T04:18:30;5.55;;;4.18;;
52047;SDS011;46904;49.438;8.752;2024-01-16T04:20:58;8.35;;;4.82;;
52047;SDS011;46904;49.438;8.752;2024-01-16T04:23:23;9.10;;;4.65;;
52047;SDS011;46904;49.438;8.752;2024-01-16T04:25:49;10.13;;;5.18;;
52047;SDS011;46904;49.438;8.752;2024-01-16T04:28:14;8.50;;;5.20;;
52047;SDS011;46904;49.438;8.752;2024-01-16T04:33:14;11.00;;;5.43;;
52047;SDS011;46904;49.438;8.752;2024-01-16T04:35:39;9.77;;;5.70;;
52047;SDS011;46904;49.438;8.752;2024-01-16T04:38:05;10.27;;;5.55;;
52047;SDS011;46904;49.438;8.752;2024-01-16T04:40:30;9.82;;;6.43;;
52047;SDS011;46904;49.438;8.752;2024-01-16T04:42:56;9.77;;;5.45;;
52047;SDS011;46904;49.438;8.752;2024-01-16T04:45:21;10.40;;;5.20;;
52047;SDS011;46904;49.438;8.752;2024-01-16T04:47:47;8.13;;;5.07;;
52047;SDS011;46904;49.438;8.752;2024-01-16T04:50:13;7.10;;;4.55;;
52047;SDS011;46904;49.438;8.752;2024-01-16T04:52:38;7.47;;;5.20;;
52047;SDS011;46904;49.438;8.752;2024-01-16T04:55:04;6.88;;;4.57;;
52047;SDS011;46904;49.438;8.752;2024-01-16T04:57:29;6.22;;;4.60;;
52047;SDS011;46904;49.438;8.752;2024-01-16T04:59:55;6.82;;;4.45;;
52047;SDS011;46904;49.438;8.752;2024-01-16T05:02:20;6.32;;;5.07;;
52047;SDS011;46904;49.438;8.752;2024-01-16T05:04:46;6.22;;;4.30;;
52047;SDS011;46904;49.438;8.752;2024-01-16T05:07:11;9.57;;;4.95;;
52047;SDS011;46904;49.438;8.752;2024-01-16T05:09:37;6.45;;;4.47;;
52047;SDS011;46904;49.438;8.752;2024-01-16T05:12:03;7.97;;;5.15;;
52047;SDS011;46904;49.438;8.752;2024-01-16T05:14:28;8.55;;;5.38;;
52047;SDS011;46904;49.438;8.752;2024-01-16T05:16:54;8.95;;;4.82;;
52047;SDS011;46904;49.438;8.752;2024-01-16T05:19:19;9.55;;;5.75;;
52047;SDS011;46904;49.438;8.752;2024-01-16T05:21:45;6.82;;;4.95;;
52047;SDS011;46904;49.438;8.752;2024-01-16T05:24:10;6.95;;;4.85;;
52047;SDS011;46904;49.438;8.752;2024-01-16T05:26:36;11.10;;;5.93;;
52047;SDS011;46904;49.438;8.752;2024-01-16T05:29:01;9.02;;;5.32;;
52047;SDS011;46904;49.438;8.752;2024-01-16T05:31:27;8.35;;;5.05;;
52047;SDS011;46904;49.438;8.752;2024-01-16T05:33:52;9.80;;;5.60;;
52047;SDS011;46904;49.438;8.752;2024-01-16T05:36:18;9.38;;;6.55;;
52047;SDS011;46904;49.438;8.752;2024-01-16T05:38:44;10.23;;;6.00;;
52047;SDS011;46904;49.438;8.752;2024-01-16T05:41:09;8.10;;;6.30;;
52047;SDS011;46904;49.438;8.752;2024-01-16T05:43:35;8.00;;;6.32;;
52047;SDS011;46904;49.438;8.752;2024-01-16T05:46:00;8.73;;;5.35;;
52047;SDS011;46904;49.438;8.752;2024-01-16T05:48:26;8.63;;;4.90;;
52047;SDS011;46904;49.438;8.752;2024-01-16T05:50:52;6.75;;;5.28;;
52047;SDS011;46904;49.438;8.752;2024-01-16T05:53:19;7.70;;;4.85;;
52047;SDS011;46904;49.438;8.752;2024-01-16T05:55:45;6.88;;;4.57;;
52047;SDS011;46904;49.438;8.752;2024-01-16T05:58:11;7.30;;;4.90;;
52047;SDS011;46904;49.438;8.752;2024-01-16T06:00:36;8.35;;;4.75;;
52047;SDS011;46904;49.438;8.752;2024-01-16T06:03:02;9.93;;;5.60;;
52047;SDS011;46904;49.438;8.752;2024-01-16T06:05:27;7.30;;;5.25;;
52047;SDS011;46904;49.438;8.752;2024-01-16T06:07:53;9.02;;;5.57;;
52047;SDS011;46904;49.438;8.752;2024-01-16T06:10:19;8.23;;;5.55;;
52047;SDS011;46904;49.438;8.752;2024-01-16T06:12:45;7.40;;;4.55;;
52047;SDS011;46904;49.438;8.752;2024-01-16T06:15:11;8.27;;;5.88;;
52047;SDS011;46904;49.438;8.752;2024-01-16T06:17:37;8.55;;;5.47;;
52047;SDS011;46904;49.438;8.752;2024-01-16T06:20:03;9.88;;;5.60;;
52047;SDS011;46904;49.438;8.752;2024-01-16T06:22:28;9.23;;;5.85;;
52047;SDS011;46904;49.438;8.752;2024-01-16T06:24:54;8.25;;;5.57;;
52047;SDS011;46904;49.438;8.752;2024-01-16T06:27:19;9.77;;;5.45;;
52047;SDS011;46904;49.438;8.752;2024-01-16T06:29:45;9.55;;;5.68;;
52047;SDS011;46904;49.438;8.752;2024-01-16T06:32:11;7.88;;;5.40;;
52047;SDS011;46904;49.438;8.752;2024-01-16T06:34:36;8.48;;;4.97;;
52047;SDS011;46904;49.438;8.752;2024-01-16T06:37:02;6.10;;;4.43;;
52047;SDS011;46904;49.438;8.752;2024-01-16T06:39:27;7.82;;;5.03;;
52047;SDS011;46904;49.438;8.752;2024-01-16T06:41:53;6.75;;;4.57;;
52047;SDS011;46904;49.438;8.752;2024-01-16T06:44:19;8.27;;;5.28;;
52047;SDS011;46904;49.438;8.752;2024-01-16T06:46:44;8.07;;;5.10;;
52047;SDS011;46904;49.438;8.752;2024-01-16T06:49:10;7.10;;;4.85;;
52047;SDS011;46904;49.438;8.752;2024-01-16T06:51:36;8.65;;;5.82;;
52047;SDS011;46904;49.438;8.752;2024-01-16T06:54:02;7.53;;;4.47;;
52047;SDS011;46904;49.438;8.752;2024-01-16T06:56:28;8.50;;;4.60;;
52047;SDS011;46904;49.438;8.752;2024-01-16T06:58:53;6.80;;;4.60;;
52047;SDS011;46904;49.438;8.752;2024-01-16T07:01:19;6.32;;;4.55;;
52047;SDS011;46904;49.438;8.752;2024-01-16T07:03:45;8.32;;;5.10;;
52047;SDS011;46904;49.438;8.752;2024-01-16T07:06:11;7.32;;;5.07;;
52047;SDS011;46904;49.438;8.752;2024-01-16T07:08:37;5.22;;;4.47;;
52047;SDS011;46904;49.438;8.752;2024-01-16T07:11:02;11.57;;;5.38;;
52047;SDS011;46904;49.438;8.752;2024-01-16T07:13:28;9.52;;;4.68;;
52047;SDS011;46904;49.438;8.752;2024-01-16T07:15:54;8.57;;;5.47;;
52047;SDS011;46904;49.438;8.752;2024-01-16T07:18:20;9.80;;;5.38;;
52047;SDS011;46904;49.438;8.752;2024-01-16T07:20:45;10.70;;;6.13;;
52047;SDS011;46904;49.438;8.752;2024-01-16T07:23:11;8.95;;;5.05;;
52047;SDS011;46904;49.438;8.752;2024-01-16T07:25:37;9.13;;;4.72;;
52047;SDS011;46904;49.438;8.752;2024-01-16T07:28:03;7.53;;;4.88;;
52047;SDS011;46904;49.438;8.752;2024-01-16T07:30:29;6.97;;;4.57;;
52047;SDS011;46904;49.438;8.752;2024-01-16T07:32:54;7.55;;;4.28;;
52047;SDS011;46904;49.438;8.752;2024-01-16T07:35:20;7.63;;;4.82;;
52047;SDS011;46904;49.438;8.752;2024-01-16T07:37:45;12.60;;;5.70;;
52047;SDS011;46904;49.438;8.752;2024-01-16T07:40:11;10.77;;;6.18;;
52047;SDS011;46904;49.438;8.752;2024-01-16T07:42:37;12.40;;;6.18;;
52047;SDS011;46904;49.438;8.752;2024-01-16T07:45:04;9.30;;;5.47;;
52047;SDS011;46904;49.438;8.752;2024-01-16T07:47:32;10.93;;;5.57;;
52047;SDS011;46904;49.438;8.752;2024-01-16T07:49:58;11.32;;;5.97;;
52047;SDS011;46904;49.438;8.752;2024-01-16T07:52:24;9.93;;;6.43;;
52047;SDS011;46904;49.438;8.752;2024-01-16T07:54:50;9.23;;;6.13;;
52047;SDS011;46904;49.438;8.752;2024-01-16T07:57:15;7.88;;;5.50;;
52047;SDS011;46904;49.438;8.752;2024-01-16T07:59:41;7.68;;;5.20;;
52047;SDS011;46904;49.438;8.752;2024-01-16T08:02:06;8.63;;;5.25;;
52047;SDS011;46904;49.438;8.752;2024-01-16T08:04:32;8.02;;;4.90;;
52047;SDS011;46904;49.438;8.752;2024-01-16T08:06:57;11.70;;;5.78;;
52047;SDS011;46904;49.438;8.752;2024-01-16T08:09:23;7.10;;;4.55;;
52047;SDS011;46904;49.438;8.752;2024-01-16T08:11:48;9.35;;;5.45;;
52047;SDS011;46904;49.438;8.752;2024-01-16T08:14:14;8.32;;;4.93;;
52047;SDS011;46904;49.438;8.752;2024-01-16T08:16:40;8.77;;;5.10;;
52047;SDS011;46904;49.438;8.752;2024-01-16T08:19:06;11.90;;;5.20;;
52047;SDS011;46904;49.438;8.752;2024-01-16T08:21:33;8.60;;;5.32;;
52047;SDS011;46904;49.438;8.752;2024-01-16T08:23:59;8.52;;;5.03;;
52047;SDS011;46904;49.438;8.752;2024-01-16T08:26:31;7.50;;;4.82;;
52047;SDS011;46904;49.438;8.752;2024-01-16T08:28:58;7.43;;;4.70;;
52047;SDS011;46904;49.438;8.752;2024-01-16T08:31:24;7.43;;;4.97;;
52047;SDS011;46904;49.438;8.752;2024-01-16T08:33:51;7.57;;;4.88;;
52047;SDS011;46904;49.438;8.752;2024-01-16T08:36:16;8.75;;;4.93;;
52047;SDS011;46904;49.438;8.752;2024-01-16T08:38:42;6.80;;;4.30;;
52047;SDS011;46904;49.438;8.752;2024-01-16T08:41:08;7.85;;;5.20;;
52047;SDS011;46904;49.438;8.752;2024-01-16T08:43:33;10.77;;;7.93;;
52047;SDS011;46904;49.438;8.752;2024-01-16T08:45:59;15.40;;;7.80;;
52047;SDS011;46904;49.438;8.752;2024-01-16T08:48:30;12.00;;;7.77;;
52047;SDS011;46904;49.438;8.752;2024-01-16T08:50:57;11.90;;;8.10;;
52047;SDS011;46904;49.438;8.752;2024-01-16T08:53:25;11.60;;;6.85;;
52047;SDS011;46904;49.438;8.752;2024-01-16T08:56:03;12.35;;;7.97;;
52047;SDS011;46904;49.438;8.752;2024-01-16T08:58:29;10.57;;;6.82;;
52047;SDS011;46904;49.438;8.752;2024-01-16T09:00:54;21.52;;;11.15;;
52047;SDS011;46904;49.438;8.752;2024-01-16T09:03:22;22.25;;;9.73;;
52047;SDS011;46904;49.438;8.752;2024-01-16T09:05:48;16.88;;;8.70;;
52047;SDS011;46904;49.438;8.752;2024-01-16T09:08:14;11.57;;;7.70;;
52047;SDS011;46904;49.438;8.752;2024-01-16T09:10:41;13.55;;;7.32;;
52047;SDS011;46904;49.438;8.752;2024-01-16T09:13:09;13.65;;;8.27;;
52047;SDS011;46904;49.438;8.752;2024-01-16T09:15:37;13.00;;;6.63;;
52047;SDS011;46904;49.438;8.752;2024-01-16T09:18:03;14.73;;;7.10;;
52047;SDS011;46904;49.438;8.752;2024-01-16T09:20:29;9.90;;;6.45;;
52047;SDS011;46904;49.438;8.752;2024-01-16T09:22:55;11.43;;;7.43;;
52047;SDS011;46904;49.438;8.752;2024-01-16T09:25:21;11.05;;;7.43;;
52047;SDS011;46904;49.438;8.752;2024-01-16T09:27:46;9.63;;;6.47;;
52047;SDS011;46904;49.438;8.752;2024-01-16T09:30:12;10.80;;;7.22;;
52047;SDS011;46904;49.438;8.752;2024-01-16T09:32:38;11.27;;;6.90;;
52047;SDS011;46904;49.438;8.752;2024-01-16T09:35:04;13.45;;;7.55;;
52047;SDS011;46904;49.438;8.752;2024-01-16T09:37:33;11.07;;;7.00;;
52047;SDS011;46904;49.438;8.752;2024-01-16T09:40:02;13.88;;;7.50;;
52047;SDS011;46904;49.438;8.752;2024-01-16T09:42:28;9.93;;;6.75;;
52047;SDS011;46904;49.438;8.752;2024-01-16T09:44:55;12.65;;;6.97;;
52047;SDS011;46904;49.438;8.752;2024-01-16T09:47:23;12.38;;;7.53;;
52047;SDS011;46904;49.438;8.752;2024-01-16T09:49:51;13.25;;;6.35;;
52047;SDS011;46904;49.438;8.752;2024-01-16T09:52:18;10.02;;;6.63;;
52047;SDS011;46904;49.438;8.752;2024-01-16T09:54:45;10.18;;;6.18;;
52047;SDS011;46904;49.438;8.752;2024-01-16T09:57:12;10.23;;;6.30;;
52047;SDS011;46904;49.438;8.752;2024-01-16T09:59:38;10.57;;;5.97;;
52047;SDS011;46904;49.438;8.752;2024-01-16T10:02:08;9.48;;;5.43;;
52047;SDS011;46904;49.438;8.752;2024-01-16T10:04:36;10.00;;;5.60;;
52047;SDS011;46904;49.438;8.752;2024-01-16T10:07:03;10.27;;;5.85;;
52047;SDS011;46904;49.438;8.752;2024-01-16T10:09:30;10.18;;;5.57;;
52047;SDS011;46904;49.438;8.752;2024-01-16T10:14:28;8.68;;;5.50;;
52047;SDS011;46904;49.438;8.752;2024-01-16T10:17:00;7.15;;;5.28;;
52047;SDS011;46904;49.438;8.752;2024-01-16T10:19:27;8.80;;;5.85;;
52047;SDS011;46904;49.438;8.752;2024-01-16T10:21:53;11.68;;;6.70;;
52047;SDS011;46904;49.438;8.752;2024-01-16T10:24:26;14.73;;;9.02;;
52047;SDS011;46904;49.438;8.752;2024-01-16T10:26:58;15.27;;;8.70;;
52047;SDS011;46904;49.438;8.752;2024-01-16T10:29:26;15.15;;;9.43;;
52047;SDS011;46904;49.438;8.752;2024-01-16T10:31:57;15.35;;;8.57;;
52047;SDS011;46904;49.438;8.752;2024-01-16T10:34:23;15.13;;;7.75;;
52047;SDS011;46904;49.438;8.752;2024-01-16T10:36:50;13.75;;;8.43;;
52047;SDS011;46904;49.438;8.752;2024-01-16T10:39:16;11.02;;;7.22;;
52047;SDS011;46904;49.438;8.752;2024-01-16T10:41:53;11.38;;;6.47;;
52047;SDS011;46904;49.438;8.752;2024-01-16T10:44:18;11.05;;;5.95;;
52047;SDS011;46904;49.438;8.752;2024-01-16T10:46:44;7.80;;;5.30;;
52047;SDS011;46904;49.438;8.752;2024-01-16T10:49:09;8.43;;;5.57;;
52047;SDS011;46904;49.438;8.752;2024-01-16T10:51:35;7.97;;;5.40;;
52047;SDS011;46904;49.438;8.752;2024-01-16T10:54:02;11.13;;;6.07;;
52047;SDS011;46904;49.438;8.752;2024-01-16T10:56:31;9.88;;;6.15;;
52047;SDS011;46904;49.438;8.752;2024-01-16T11:01:34;8.35;;;6.45;;
52047;SDS011;46904;49.438;8.752;2024-01-16T11:04:01;9.30;;;5.53;;
52047;SDS011;46904;49.438;8.752;2024-01-16T11:09:39;8.27;;;5.70;;
52047;SDS011;46904;49.438;8.752;2024-01-16T11:12:05;9.27;;;5.43;;
52047;SDS011;46904;49.438;8.752;2024-01-16T11:14:31;9.65;;;5.50;;
52047;SDS011;46904;49.438;8.752;2024-01-16T11:16:58;9.70;;;5.82;;
52047;SDS011;46904;49.438;8.752;2024-01-16T11:19:24;9.63;;;5.65;;
52047;SDS011;46904;49.438;8.752;2024-01-16T11:21:50;9.95;;;5.38;;
52047;SDS011;46904;49.438;8.752;2024-01-16T11:24:17;8.48;;;5.15;;
52047;SDS011;46904;49.438;8.752;2024-01-16T11:26:50;9.30;;;5.25;;
52047;SDS011;46904;49.438;8.752;2024-01-16T11:31:54;10.23;;;5.90;;
52047;SDS011;46904;49.438;8.752;2024-01-16T11:37:09;6.38;;;4.47;;
52047;SDS011;46904;49.438;8.752;2024-01-16T11:39:36;7.25;;;4.90;;
52047;SDS011;46904;49.438;8.752;2024-01-16T11:42:04;9.15;;;5.82;;
52047;SDS011;46904;49.438;8.752;2024-01-16T11:44:35;8.95;;;5.13;;
52047;SDS011;46904;49.438;8.752;2024-01-16T11:47:01;7.80;;;5.68;;
52047;SDS011;46904;49.438;8.752;2024-01-16T11:49:27;10.68;;;6.43;;
52047;SDS011;46904;49.438;8.752;2024-01-16T11:51:52;8.93;;;5.65;;
52047;SDS011;46904;49.438;8.752;2024-01-16T11:54:18;8.27;;;5.22;;
52047;SDS011;46904;49.438;8.752;2024-01-16T12:01:53;8.63;;;5.60;;
52047;SDS011;46904;49.438;8.752;2024-01-16T12:06:57;8.27;;;5.07;;
52047;SDS011;46904;49.438;8.752;2024-01-16T12:09:25;7.63;;;4.35;;
52047;SDS011;46904;49.438;8.752;2024-01-16T12:11:58;7.20;;;4.57;;
52047;SDS011;46904;49.438;8.752;2024-01-16T12:14:26;9.30;;;5.35;;
52047;SDS011;46904;49.438;8.752;2024-01-16T12:16:51;8.30;;;5.43;;
52047;SDS011;46904;49.438;8.752;2024-01-16T12:19:17;8.40;;;5.32;;
52047;SDS011;46904;49.438;8.752;2024-01-16T12:21:46;8.80;;;5.38;;
52047;SDS011;46904;49.438;8.752;2024-01-16T12:26:38;8.25;;;5.03;;
52047;SDS011;46904;49.438;8.752;2024-01-16T12:29:03;7.78;;;4.82;;
52047;SDS011;46904;49.438;8.752;2024-01-16T12:31:29;9.98;;;5.00;;
52047;SDS011;46904;49.438;8.752;2024-01-16T12:34:04;7.85;;;4.60;;
52047;SDS011;46904;49.438;8.752;2024-01-16T12:36:30;7.20;;;5.10;;
52047;SDS011;46904;49.438;8.752;2024-01-16T12:38:56;6.18;;;4.20;;
52047;SDS011;46904;49.438;8.752;2024-01-16T12:41:24;7.10;;;4.35;;
52047;SDS011;46904;49.438;8.752;2024-01-16T12:43:51;7.53;;;4.95;;
52047;SDS011;46904;49.438;8.752;2024-01-16T12:46:20;8.63;;;5.65;;
52047;SDS011;46904;49.438;8.752;2024-01-16T12:48:45;8.52;;;5.45;;
52047;SDS011;46904;49.438;8.752;2024-01-16T12:51:11;10.38;;;5.10;;
52047;SDS011;46904;49.438;8.752;2024-01-16T12:53:36;7.25;;;4.57;;
52047;SDS011;46904;49.438;8.752;2024-01-16T12:56:02;9.10;;;5.10;;
52047;SDS011;46904;49.438;8.752;2024-01-16T12:58:35;7.43;;;5.30;;
52047;SDS011;46904;49.438;8.752;2024-01-16T13:03:46;11.57;;;6.30;;
52047;SDS011;46904;49.438;8.752;2024-01-16T13:06:17;9.68;;;6.35;;
52047;SDS011;46904;49.438;8.752;2024-01-16T13:08:43;13.50;;;6.45;;
52047;SDS011;46904;49.438;8.752;2024-01-16T13:11:09;9.48;;;5.78;;
52047;SDS011;46904;49.438;8.752;2024-01-16T13:13:35;8.20;;;5.13;;
52047;SDS011;46904;49.438;8.752;2024-01-16T13:16:01;10.93;;;5.80;;
52047;SDS011;46904;49.438;8.752;2024-01-16T13:18:27;7.10;;;5.50;;
52047;SDS011;46904;49.438;8.752;2024-01-16T13:20:54;8.80;;;5.15;;
52047;SDS011;46904;49.438;8.752;2024-01-16T13:23:20;9.68;;;6.10;;
52047;SDS011;46904;49.438;8.752;2024-01-16T13:25:46;8.30;;;6.35;;
52047;SDS011;46904;49.438;8.752;2024-01-16T13:28:12;9.25;;;5.88;;
52047;SDS011;46904;49.438;8.752;2024-01-16T13:30:38;8.05;;;5.40;;
52047;SDS011;46904;49.438;8.752;2024-01-16T13:33:04;8.52;;;5.90;;
52047;SDS011;46904;49.438;8.752;2024-01-16T13:35:34;10.90;;;7.45;;
52047;SDS011;46904;49.438;8.752;2024-01-16T13:38:00;11.10;;;6.47;;
52047;SDS011;46904;49.438;8.752;2024-01-16T13:40:25;12.70;;;7.40;;
52047;SDS011;46904;49.438;8.752;2024-01-16T13:42:51;14.05;;;8.05;;
52047;SDS011;46904;49.438;8.752;2024-01-16T13:45:19;17.02;;;8.70;;
52047;SDS011;46904;49.438;8.752;2024-01-16T13:47:44;15.93;;;8.77;;
52047;SDS011;46904;49.438;8.752;2024-01-16T13:50:10;13.13;;;8.02;;
52047;SDS011;46904;49.438;8.752;2024-01-16T13:52:39;13.88;;;8.05;;
52047;SDS011;46904;49.438;8.752;2024-01-16T13:55:04;12.80;;;7.70;;
52047;SDS011;46904;49.438;8.752;2024-01-16T13:57:33;10.55;;;7.00;;
52047;SDS011;46904;49.438;8.752;2024-01-16T13:59:59;12.90;;;7.32;;
52047;SDS011;46904;49.438;8.752;2024-01-16T14:02:24;10.63;;;6.25;;
52047;SDS011;46904;49.438;8.752;2024-01-16T14:04:50;10.65;;;6.57;;
52047;SDS011;46904;49.438;8.752;2024-01-16T14:07:16;11.93;;;6.68;;
52047;SDS011;46904;49.438;8.752;2024-01-16T14:09:42;9.02;;;5.80;;
52047;SDS011;46904;49.438;8.752;2024-01-16T14:12:07;9.88;;;5.82;;
52047;SDS011;46904;49.438;8.752;2024-01-16T14:14:33;9.27;;;5.90;;
52047;SDS011;46904;49.438;8.752;2024-01-16T14:16:59;9.02;;;6.45;;
52047;SDS011;46904;49.438;8.752;2024-01-16T14:19:28;12.30;;;6.78;;
52047;SDS011;46904;49.438;8.752;2024-01-16T14:21:53;10.18;;;6.30;;
52047;SDS011;46904;49.438;8.752;2024-01-16T14:24:19;8.10;;;5.45;;
52047;SDS011;46904;49.438;8.752;2024-01-16T14:26:45;8.30;;;5.45;;
52047;SDS011;46904;49.438;8.752;2024-01-16T14:29:10;8.55;;;5.05;;
52047;SDS011;46904;49.438;8.752;2024-01-16T14:31:39;9.52;;;5.90;;
52047;SDS011;46904;49.438;8.752;2024-01-16T14:34:07;9.63;;;6.10;;
52047;SDS011;46904;49.438;8.752;2024-01-16T14:36:35;10.95;;;6.40;;
52047;SDS011;46904;49.438;8.752;2024-01-16T14:39:00;10.18;;;6.55;;
52047;SDS011;46904;49.438;8.752;2024-01-16T14:41:26;13.77;;;7.25;;
52047;SDS011;46904;49.438;8.752;2024-01-16T14:43:51;9.27;;;6.63;;
52047;SDS011;46904;49.438;8.752;2024-01-16T14:46:17;13.13;;;7.28;;
52047;SDS011;46904;49.438;8.752;2024-01-16T14:48:45;12.55;;;7.53;;
52047;SDS011;46904;49.438;8.752;2024-01-16T14:51:20;13.40;;;8.00;;
52047;SDS011;46904;49.438;8.752;2024-01-16T14:53:45;12.73;;;7.38;;
52047;SDS011;46904;49.438;8.752;2024-01-16T14:56:11;11.82;;;7.30;;
52047;SDS011;46904;49.438;8.752;2024-01-16T14:58:36;14.25;;;8.73;;
52047;SDS011;46904;49.438;8.752;2024-01-16T15:01:02;19.90;;;10.95;;
52047;SDS011;46904;49.438;8.752;2024-01-16T15:03:27;15.13;;;8.90;;
52047;SDS011;46904;49.438;8.752;2024-01-16T15:05:53;15.63;;;8.93;;
52047;SDS011;46904;49.438;8.752;2024-01-16T15:08:22;15.07;;;9.60;;
52047;SDS011;46904;49.438;8.752;2024-01-16T15:10:47;12.43;;;7.07;;
52047;SDS011;46904;49.438;8.752;2024-01-16T15:13:13;13.55;;;8.50;;